Coningsby, United Kingdom
Current Conditions -  °F | °C
As of 7:50 AM on Wednesday 26 Nov 2014 (Local Time) from EGXC Reporting Station
Light Rain Light Rain  
Wind Chill: 43°   Ceiling: 3800
Heat Index: 46°   Visibility: 4mi
Dew Point: 45°   Wind: 7mph
Humidity: 93%   Direction: 90°E
Pressure: 29.91"   Gusts: NA
Location:  53.11°N, 0.18°W
Report Text: EGXC 260750Z 09006KT 7000 -RA FEW012 OVC038 08/07 Q1013 WHT BECMG 4000 RADZ SCT012 GRN
Loading
Personal Weather Stations






























Interactive Weather Map New forecast layout! Learn more

10-Day Weather Forecast

Advertisements
Track Severe Weather on mobile